createdAt,value
2023-01-19T00:01:44.737Z,96519.34
2023-01-19T00:04:13.289Z,96522.00
2023-01-19T00:06:41.848Z,96528.53
2023-01-19T00:09:10.590Z,96527.59
2023-01-19T00:11:39.490Z,96529.69
2023-01-19T00:14:08.016Z,96531.22
2023-01-19T00:16:37.960Z,96541.50
2023-01-19T00:19:06.650Z,96535.91
2023-01-19T00:21:35.148Z,96536.28
2023-01-19T00:24:03.767Z,96542.97
2023-01-19T00:26:32.578Z,96549.88
2023-01-19T00:29:01.393Z,96548.34
2023-01-19T00:31:34.070Z,96560.38
2023-01-19T00:34:05.556Z,96555.03
2023-01-19T00:36:35.008Z,96562.69
2023-01-19T00:39:03.839Z,96555.09
2023-01-19T00:41:49.597Z,96551.53
2023-01-19T00:44:18.114Z,96562.28
2023-01-19T00:46:46.656Z,96562.25
2023-01-19T00:49:16.589Z,96566.63
2023-01-19T00:51:45.105Z,96571.69
2023-01-19T00:54:13.761Z,96573.84
2023-01-19T00:56:42.252Z,96576.38
2023-01-19T00:59:12.297Z,96577.88
2023-01-19T01:01:45.351Z,96580.78
2023-01-19T01:04:17.047Z,96580.56
2023-01-19T01:06:45.792Z,96585.19
2023-01-19T01:09:14.524Z,96591.13
2023-01-19T01:11:44.247Z,96607.13
2023-01-19T01:14:14.238Z,96607.72
2023-01-19T01:16:43.166Z,96608.81
2023-01-19T01:19:11.977Z,96617.34
2023-01-19T01:21:42.549Z,96614.44
2023-01-19T01:24:11.833Z,96628.66
2023-01-19T01:26:40.348Z,96616.66
2023-01-19T01:29:08.913Z,96617.94
2023-01-19T01:31:37.494Z,96616.34
2023-01-19T01:34:06.245Z,96626.41
2023-01-19T01:36:35.517Z,96632.06
2023-01-19T01:39:06.339Z,96644.59
2023-01-19T01:41:35.600Z,96640.22
2023-01-19T01:44:08.267Z,96641.72
2023-01-19T01:46:37.058Z,96648.84
2023-01-19T01:49:13.070Z,96651.66
2023-01-19T01:51:49.418Z,96651.13
2023-01-19T01:54:26.058Z,96652.94
2023-01-19T01:57:01.875Z,96656.50
2023-01-19T01:59:39.242Z,96657.75
2023-01-19T02:02:30.876Z,96654.34
2023-01-19T02:05:06.368Z,96660.00
2023-01-19T02:08:01.930Z,96659.16
2023-01-19T02:10:49.845Z,96659.38
2023-01-19T02:13:20.552Z,96666.97
2023-01-19T02:15:52.785Z,96668.81
2023-01-19T02:18:24.278Z,96671.50
2023-01-19T02:21:09.208Z,96668.94
2023-01-19T02:23:45.409Z,96667.78
2023-01-19T02:26:19.453Z,96662.69
2023-01-19T02:28:53.128Z,96664.53
2023-01-19T02:31:21.886Z,96668.88
2023-01-19T02:33:51.142Z,96668.72
2023-01-19T02:36:25.992Z,96670.97
2023-01-19T02:39:00.171Z,96665.91
2023-01-19T02:41:35.758Z,96672.56
2023-01-19T02:44:05.921Z,96675.31
2023-01-19T02:46:34.784Z,96680.09
2023-01-19T02:49:03.512Z,96686.09
2023-01-19T02:51:32.269Z,96686.44
2023-01-19T02:54:28.854Z,96686.38
2023-01-19T02:57:23.483Z,96684.88
2023-01-19T03:00:14.687Z,96681.59
2023-01-19T03:03:03.072Z,96680.19
2023-01-19T03:05:51.797Z,96678.91
2023-01-19T03:08:42.831Z,96683.19
2023-01-19T03:11:15.205Z,96686.97
2023-01-19T03:13:50.839Z,96686.50
2023-01-19T03:16:27.088Z,96682.47
2023-01-19T03:19:07.223Z,96682.69
2023-01-19T03:21:40.042Z,96686.59
2023-01-19T03:24:13.414Z,96682.41
2023-01-19T03:26:48.691Z,96685.09
2023-01-19T03:29:22.288Z,96683.47
2023-01-19T03:31:53.186Z,96687.41
2023-01-19T03:34:24.039Z,96686.91
2023-01-19T03:36:58.643Z,96680.53
2023-01-19T03:39:29.976Z,96686.69
2023-01-19T03:42:06.284Z,96690.44
2023-01-19T03:44:38.469Z,96690.66
2023-01-19T03:47:10.937Z,96693.28
2023-01-19T03:49:44.224Z,96688.00
2023-01-19T03:52:14.200Z,96690.38
2023-01-19T03:54:43.451Z,96682.88
2023-01-19T03:57:13.476Z,96685.22
2023-01-19T03:59:41.958Z,96687.50
2023-01-19T04:02:11.104Z,96688.25
2023-01-19T04:04:40.107Z,96681.69
2023-01-19T04:07:11.953Z,96679.28
2023-01-19T04:09:40.575Z,96681.78
2023-01-19T04:12:10.112Z,96679.44
2023-01-19T04:14:40.104Z,96684.34
2023-01-19T04:17:10.391Z,96683.34
2023-01-19T04:19:38.968Z,96691.78
2023-01-19T04:22:07.425Z,96698.31
2023-01-19T04:24:35.990Z,96703.03
2023-01-19T04:27:04.891Z,96699.91
2023-01-19T04:29:33.605Z,96705.75
2023-01-19T04:32:03.511Z,96697.72
2023-01-19T04:34:32.158Z,96703.94
2023-01-19T04:37:00.949Z,96697.63
2023-01-19T04:39:29.469Z,96682.13
2023-01-19T04:41:58.436Z,96682.78
2023-01-19T04:44:27.277Z,96680.56
2023-01-19T04:46:56.125Z,96683.94
2023-01-19T04:49:26.465Z,96683.25
2023-01-19T04:51:55.748Z,96677.69
2023-01-19T04:54:24.676Z,96681.72
2023-01-19T04:56:53.362Z,96682.50
2023-01-19T04:59:22.129Z,96680.56
2023-01-19T05:01:50.760Z,96683.94
2023-01-19T05:04:19.322Z,96681.75
2023-01-19T05:06:49.483Z,96685.78
2023-01-19T05:09:18.611Z,96689.94
2023-01-19T05:11:47.300Z,96695.31
2023-01-19T05:14:16.001Z,96698.31
2023-01-19T05:16:44.655Z,96705.63
2023-01-19T05:19:13.316Z,96706.63
2023-01-19T05:21:41.856Z,96704.00
2023-01-19T05:24:12.142Z,96706.91
2023-01-19T05:26:40.951Z,96704.00
2023-01-19T05:29:10.078Z,96705.63
2023-01-19T05:31:38.831Z,96709.34
2023-01-19T05:34:07.815Z,96715.22
2023-01-19T05:36:39.099Z,96711.16
2023-01-19T05:39:07.910Z,96717.31
2023-01-19T05:41:38.893Z,96712.28
2023-01-19T05:44:07.519Z,96718.66
2023-01-19T05:46:37.229Z,96724.28
2023-01-19T05:49:09.979Z,96726.00
2023-01-19T05:51:39.005Z,96729.78
2023-01-19T05:54:10.019Z,96737.25
2023-01-19T05:56:40.374Z,96731.69
2023-01-19T05:59:09.720Z,96737.03
2023-01-19T06:01:39.915Z,96748.47
2023-01-19T06:04:08.989Z,96748.22
2023-01-19T06:06:37.704Z,96745.00
2023-01-19T06:09:07.954Z,96746.09
2023-01-19T06:11:36.596Z,96753.28
2023-01-19T06:14:06.699Z,96754.34
2023-01-19T06:16:35.412Z,96765.50
2023-01-19T06:19:04.309Z,96762.59
2023-01-19T06:21:32.865Z,96768.19
2023-01-19T06:24:01.513Z,96772.16
2023-01-19T06:26:30.415Z,96770.84
2023-01-19T06:28:59.176Z,96776.72
2023-01-19T06:31:29.306Z,96785.50
2023-01-19T06:34:12.685Z,96782.31
2023-01-19T06:36:41.684Z,96788.97
2023-01-19T06:39:11.645Z,96800.44
2023-01-19T06:41:40.668Z,96798.31
2023-01-19T06:44:09.258Z,96805.22
2023-01-19T06:46:39.561Z,96806.84
2023-01-19T06:49:08.894Z,96815.63
2023-01-19T06:51:37.599Z,96817.50
2023-01-19T06:54:06.411Z,96818.53
2023-01-19T06:56:35.192Z,96821.22
2023-01-19T06:59:04.060Z,96825.22
2023-01-19T07:01:32.870Z,96824.97
2023-01-19T07:04:02.954Z,96831.88
2023-01-19T07:06:31.476Z,96834.28
2023-01-19T07:09:00.313Z,96844.38
2023-01-19T07:11:33.049Z,96842.25
2023-01-19T07:14:01.821Z,96853.47
2023-01-19T07:16:30.351Z,96856.66
2023-01-19T07:18:59.241Z,96864.94
2023-01-19T07:21:29.494Z,96865.19
2023-01-19T07:23:58.296Z,96862.78
2023-01-19T07:26:27.998Z,96855.75
2023-01-19T07:28:56.679Z,96862.09
2023-01-19T07:31:25.434Z,96866.31
2023-01-19T07:33:55.232Z,96859.28
2023-01-19T07:36:23.817Z,96867.84
2023-01-19T07:38:53.822Z,96867.53
2023-01-19T07:41:22.611Z,96874.66
2023-01-19T07:43:52.827Z,96869.78
2023-01-19T07:46:21.394Z,96876.19
2023-01-19T07:48:50.430Z,96876.09
2023-01-19T07:51:19.999Z,96876.31
2023-01-19T07:53:56.476Z,96880.38
2023-01-19T07:56:27.833Z,96884.56
2023-01-19T07:58:56.814Z,96880.72
2023-01-19T08:01:25.710Z,96879.78
2023-01-19T08:03:54.495Z,96876.69
2023-01-19T08:06:25.710Z,96883.06
2023-01-19T08:08:55.919Z,96884.59
2023-01-19T08:11:24.964Z,96885.38
2023-01-19T08:13:53.802Z,96880.50
2023-01-19T08:16:24.341Z,96881.69
2023-01-19T08:18:54.422Z,96889.47
2023-01-19T08:21:23.272Z,96887.53
2023-01-19T08:23:58.300Z,96890.03
2023-01-19T08:26:30.853Z,96897.56
2023-01-19T08:29:03.681Z,96903.69
2023-01-19T08:31:33.726Z,96904.00
2023-01-19T08:34:03.187Z,96895.66
2023-01-19T08:36:33.848Z,96895.03
2023-01-19T08:39:05.560Z,96899.53
2023-01-19T08:41:34.703Z,96895.56
2023-01-19T08:44:03.389Z,96898.13
2023-01-19T08:46:32.207Z,96897.09
2023-01-19T08:49:01.567Z,96897.63
2023-01-19T08:51:30.870Z,96892.69
2023-01-19T08:54:00.904Z,96886.81
2023-01-19T08:56:31.708Z,96894.22
2023-01-19T08:59:09.145Z,96891.53
2023-01-19T09:01:38.725Z,96887.53
2023-01-19T09:04:08.164Z,96900.78
2023-01-19T09:06:37.111Z,96901.91
2023-01-19T09:09:06.084Z,96909.19
2023-01-19T09:11:36.205Z,96902.25
2023-01-19T09:14:05.697Z,96913.06
2023-01-19T09:16:34.479Z,96908.28
2023-01-19T09:19:03.389Z,96911.28
2023-01-19T09:21:32.194Z,96909.94
2023-01-19T09:24:01.336Z,96903.91
2023-01-19T09:26:31.653Z,96912.38
2023-01-19T09:29:03.220Z,96905.63
2023-01-19T09:31:32.014Z,96904.03
2023-01-19T09:34:00.887Z,96912.38
2023-01-19T09:36:30.166Z,96910.59
2023-01-19T09:38:58.923Z,96912.78
2023-01-19T09:41:28.511Z,96910.16
2023-01-19T09:44:01.505Z,96906.56
2023-01-19T09:46:39.949Z,96912.63
2023-01-19T09:49:17.063Z,96917.47
2023-01-19T09:51:49.754Z,96914.75
2023-01-19T09:54:21.883Z,96913.63
2023-01-19T09:56:52.946Z,96912.47
2023-01-19T09:59:25.720Z,96911.28
2023-01-19T10:02:21.855Z,96917.38
2023-01-19T10:05:01.036Z,96918.41
2023-01-19T10:07:53.436Z,96915.13
2023-01-19T10:10:26.125Z,96914.81
2023-01-19T10:13:09.724Z,96915.84
2023-01-19T10:15:53.709Z,96906.19
2023-01-19T10:18:31.026Z,96911.97
2023-01-19T10:21:07.425Z,96901.56
2023-01-19T10:23:46.567Z,96902.81
2023-01-19T10:26:25.306Z,96906.31
2023-01-19T10:29:02.636Z,96899.34
2023-01-19T10:31:33.652Z,96911.13
2023-01-19T10:34:04.771Z,96898.22
2023-01-19T10:36:41.125Z,96900.59
2023-01-19T10:39:18.581Z,96892.94
2023-01-19T10:41:54.828Z,96897.13
2023-01-19T10:44:30.259Z,96889.47
2023-01-19T10:47:03.376Z,96893.16
2023-01-19T10:49:43.275Z,96886.28
2023-01-19T10:52:30.045Z,96887.00
2023-01-19T10:55:00.283Z,96889.38
2023-01-19T10:57:33.058Z,96885.75
2023-01-19T11:00:01.718Z,96881.66
2023-01-19T11:02:32.816Z,96876.38
2023-01-19T11:05:25.299Z,96879.66
2023-01-19T11:07:54.211Z,96884.03
2023-01-19T11:10:26.556Z,96876.25
2023-01-19T11:13:02.958Z,96871.97
2023-01-19T11:15:36.229Z,96878.19
2023-01-19T11:18:07.723Z,96867.06
2023-01-19T11:20:50.677Z,96867.94
2023-01-19T11:23:29.539Z,96874.06
2023-01-19T11:26:01.522Z,96866.69
2023-01-19T11:28:37.418Z,96860.25
2023-01-19T11:31:21.528Z,96855.00
2023-01-19T11:33:54.253Z,96861.78
2023-01-19T11:36:26.906Z,96858.25
2023-01-19T11:38:58.043Z,96851.00
2023-01-19T11:41:30.659Z,96853.91
2023-01-19T11:44:10.853Z,96851.13
2023-01-19T11:46:47.409Z,96850.91
2023-01-19T11:49:28.441Z,96837.06
2023-01-19T11:52:06.245Z,96845.00
2023-01-19T11:54:46.199Z,96848.00
2023-01-19T11:57:18.189Z,96847.88
2023-01-19T11:59:47.390Z,96839.44
2023-01-19T12:02:26.945Z,96841.25
2023-01-19T12:05:05.167Z,96834.50
2023-01-19T12:07:39.263Z,96828.94
2023-01-19T12:10:26.608Z,96833.25
2023-01-19T12:12:57.523Z,96835.31
2023-01-19T12:15:36.862Z,96830.88
2023-01-19T12:18:11.550Z,96831.50
2023-01-19T12:20:45.784Z,96836.41
2023-01-19T12:23:33.571Z,96832.75
2023-01-19T12:26:31.251Z,96828.66
2023-01-19T12:29:07.419Z,96834.53
2023-01-19T12:31:36.149Z,96824.84
2023-01-19T12:34:39.933Z,96815.75
2023-01-19T12:37:36.506Z,96813.38
2023-01-19T12:40:22.906Z,96815.00
2023-01-19T12:43:00.187Z,96809.91
2023-01-19T12:45:34.635Z,96806.69
2023-01-19T12:48:08.817Z,96814.84
2023-01-19T12:50:39.673Z,96809.28
2023-01-19T12:53:22.629Z,96812.28
2023-01-19T12:56:01.388Z,96810.88
2023-01-19T12:58:31.011Z,96811.03
2023-01-19T13:01:16.740Z,96816.16
2023-01-19T13:04:02.059Z,96808.22
2023-01-19T13:07:13.599Z,96815.38
2023-01-19T13:09:43.646Z,96818.19
2023-01-19T13:12:28.928Z,96821.66
2023-01-19T13:15:35.501Z,96811.59
2023-01-19T13:18:05.466Z,96813.34
2023-01-19T13:20:47.585Z,96811.06
2023-01-19T13:23:24.702Z,96813.28
2023-01-19T13:26:05.066Z,96819.53
2023-01-19T13:28:41.111Z,96817.81
2023-01-19T13:31:11.027Z,96821.34
2023-01-19T13:33:49.039Z,96819.88
2023-01-19T13:36:28.765Z,96823.38
2023-01-19T13:39:00.581Z,96822.22
2023-01-19T13:41:36.912Z,96818.75
2023-01-19T13:44:14.376Z,96831.84
2023-01-19T13:46:43.635Z,96825.72
2023-01-19T13:49:22.201Z,96827.50
2023-01-19T13:52:14.009Z,96829.22
2023-01-19T13:54:50.353Z,96840.97
2023-01-19T13:57:29.459Z,96841.38
2023-01-19T14:00:16.538Z,96839.00
2023-01-19T14:03:01.216Z,96843.38
2023-01-19T14:05:33.517Z,96837.91
2023-01-19T14:08:05.352Z,96838.78
2023-01-19T14:10:37.135Z,96848.56
2023-01-19T14:13:15.491Z,96843.44
2023-01-19T14:15:45.515Z,96843.97
2023-01-19T14:18:27.568Z,96843.28
2023-01-19T14:21:01.143Z,96845.38
2023-01-19T14:23:49.612Z,96846.16
2023-01-19T14:26:46.837Z,96844.84
2023-01-19T14:29:27.680Z,96842.16
2023-01-19T14:32:17.524Z,96848.34
2023-01-19T14:34:48.582Z,96849.34
2023-01-19T14:37:24.792Z,96849.72
2023-01-19T14:39:59.100Z,96853.72
2023-01-19T14:42:32.123Z,96853.22
2023-01-19T14:45:07.551Z,96852.31
2023-01-19T14:47:40.941Z,96846.06
2023-01-19T14:50:25.419Z,96856.91
2023-01-19T14:53:00.100Z,96855.72
2023-01-19T14:55:38.865Z,96857.28
2023-01-19T14:58:12.703Z,96860.09
2023-01-19T15:00:43.834Z,96862.19
2023-01-19T15:03:12.841Z,96862.28
2023-01-19T15:05:44.851Z,96868.13
2023-01-19T15:08:17.811Z,96873.50
2023-01-19T15:10:47.651Z,96876.66
2023-01-19T15:13:21.572Z,96876.19
2023-01-19T15:15:52.678Z,96877.34
2023-01-19T15:18:28.531Z,96872.19
2023-01-19T15:21:02.693Z,96882.13
2023-01-19T15:23:31.676Z,96877.66
2023-01-19T15:26:02.355Z,96873.31
2023-01-19T15:28:32.236Z,96878.00
2023-01-19T15:31:02.391Z,96884.94
2023-01-19T15:33:31.928Z,96879.34
2023-01-19T15:36:01.239Z,96872.47
2023-01-19T15:38:29.845Z,96876.84
2023-01-19T15:40:59.006Z,96876.84
2023-01-19T15:43:27.571Z,96885.69
2023-01-19T15:46:03.412Z,96881.69
2023-01-19T15:48:31.915Z,96894.44
2023-01-19T15:51:01.094Z,96887.66
2023-01-19T15:53:30.532Z,96891.06
2023-01-19T15:55:59.091Z,96890.84
2023-01-19T15:58:27.649Z,96886.97
2023-01-19T16:00:58.723Z,96889.34
2023-01-19T16:03:28.783Z,96890.94
2023-01-19T16:06:01.040Z,96892.63
2023-01-19T16:08:30.148Z,96890.81
2023-01-19T16:10:58.749Z,96891.91
2023-01-19T16:13:29.982Z,96890.81
2023-01-19T16:16:04.348Z,96893.59
2023-01-19T16:18:35.151Z,96898.28
2023-01-19T16:21:03.695Z,96892.81
2023-01-19T16:23:32.273Z,96900.38
2023-01-19T16:26:04.917Z,96900.53
2023-01-19T16:28:33.576Z,96903.28
2023-01-19T16:31:02.144Z,96899.81
2023-01-19T16:33:30.844Z,96915.06
2023-01-19T16:36:00.828Z,96908.06
2023-01-19T16:38:29.497Z,96916.06
2023-01-19T16:40:58.035Z,96914.19
2023-01-19T16:43:28.301Z,96912.09
2023-01-19T16:46:00.537Z,96908.81
2023-01-19T16:48:30.647Z,96916.13
2023-01-19T16:51:03.762Z,96925.22
2023-01-19T16:53:34.744Z,96921.22
2023-01-19T16:56:07.528Z,96912.44
2023-01-19T16:58:38.347Z,96917.16
2023-01-19T17:01:13.418Z,96916.19
2023-01-19T17:03:43.219Z,96912.00
2023-01-19T17:06:18.029Z,96912.38
2023-01-19T17:08:47.530Z,96917.38
2023-01-19T17:11:21.705Z,96910.66
2023-01-19T17:13:53.995Z,96922.44
2023-01-19T17:16:22.941Z,96925.22
2023-01-19T17:18:52.030Z,96924.22
2023-01-19T17:21:22.144Z,96925.09
2023-01-19T17:23:54.224Z,96925.38
2023-01-19T17:26:25.288Z,96920.00
2023-01-19T17:28:58.744Z,96923.47
2023-01-19T17:31:27.364Z,96930.88
2023-01-19T17:33:56.106Z,96929.06
2023-01-19T17:36:28.154Z,96928.47
2023-01-19T17:39:00.670Z,96928.66
2023-01-19T17:41:32.106Z,96932.53
2023-01-19T17:44:03.080Z,96936.69
2023-01-19T17:46:32.531Z,96935.38
2023-01-19T17:49:04.425Z,96933.44
2023-01-19T17:51:35.225Z,96931.69
2023-01-19T17:54:04.290Z,96947.25
2023-01-19T17:56:37.637Z,96942.69
2023-01-19T17:59:08.191Z,96939.78
2023-01-19T18:01:40.356Z,96937.47
2023-01-19T18:04:10.341Z,96943.88
2023-01-19T18:06:41.190Z,96957.00
2023-01-19T18:09:10.176Z,96951.41
2023-01-19T18:11:38.860Z,96948.94
2023-01-19T18:14:07.482Z,96945.16
2023-01-19T18:16:36.945Z,96947.91
2023-01-19T18:19:05.561Z,96941.78
2023-01-19T18:21:34.105Z,96949.88
2023-01-19T18:24:06.608Z,96950.59
2023-01-19T18:26:37.676Z,96942.56
2023-01-19T18:29:06.318Z,96943.56
2023-01-19T18:31:35.224Z,96939.09
2023-01-19T18:34:04.503Z,96948.72
2023-01-19T18:36:34.194Z,96948.88
2023-01-19T18:39:04.840Z,96947.13
2023-01-19T18:41:35.489Z,96954.59
2023-01-19T18:44:04.047Z,96951.41
2023-01-19T18:46:33.202Z,96952.16
2023-01-19T18:49:01.790Z,96954.59
2023-01-19T18:51:30.838Z,96949.59
2023-01-19T18:54:00.179Z,96954.91
2023-01-19T18:56:30.265Z,96953.88
2023-01-19T18:58:58.807Z,96956.13
2023-01-19T19:01:32.610Z,96961.13
2023-01-19T19:04:02.155Z,96946.56
2023-01-19T19:06:30.925Z,96958.34
2023-01-19T19:09:00.285Z,96950.13
2023-01-19T19:11:30.131Z,96957.41
2023-01-19T19:14:01.915Z,96951.69
2023-01-19T19:16:34.100Z,96948.22
2023-01-19T19:19:04.344Z,96952.28
2023-01-19T19:21:33.149Z,96946.03
2023-01-19T19:24:01.839Z,96946.97
2023-01-19T19:26:32.005Z,96944.28
2023-01-19T19:29:01.992Z,96941.78
2023-01-19T19:31:31.677Z,96952.00
2023-01-19T19:34:00.831Z,96943.88
2023-01-19T19:36:30.479Z,96946.56
2023-01-19T19:39:00.974Z,96949.72
2023-01-19T19:41:32.286Z,96956.69
2023-01-19T19:44:01.203Z,96953.56
2023-01-19T19:46:29.957Z,96958.06
2023-01-19T19:48:59.021Z,96962.63
2023-01-19T19:51:29.548Z,96957.78
2023-01-19T19:54:00.460Z,96966.91
2023-01-19T19:56:34.367Z,96963.13
2023-01-19T19:59:03.207Z,96968.91
2023-01-19T20:01:33.859Z,96968.56
2023-01-19T20:04:08.539Z,96970.81
2023-01-19T20:06:40.542Z,96974.81
2023-01-19T20:09:12.756Z,96977.38
2023-01-19T20:11:44.343Z,96974.97
2023-01-19T20:14:16.276Z,96973.44
2023-01-19T20:16:45.423Z,96972.19
2023-01-19T20:19:14.290Z,96981.66
2023-01-19T20:21:43.905Z,96981.16
2023-01-19T20:24:17.314Z,96987.78
2023-01-19T20:26:51.124Z,96987.47
2023-01-19T20:29:21.215Z,96994.22
2023-01-19T20:31:53.936Z,96990.16
2023-01-19T20:34:26.708Z,96995.88
2023-01-19T20:36:55.711Z,96994.63
2023-01-19T20:39:25.847Z,96996.50
2023-01-19T20:41:56.029Z,96987.69
2023-01-19T20:44:27.322Z,96994.44
2023-01-19T20:46:57.169Z,96992.56
2023-01-19T20:49:26.153Z,96986.69
2023-01-19T20:51:54.854Z,96992.56
2023-01-19T20:54:28.298Z,96990.16
2023-01-19T20:56:59.803Z,96989.06
2023-01-19T20:59:29.095Z,96995.72
2023-01-19T21:01:57.991Z,96991.53
2023-01-19T21:04:26.827Z,96995.72
2023-01-19T21:06:55.854Z,96994.84
2023-01-19T21:09:24.613Z,96989.31
2023-01-19T21:11:55.925Z,96997.31
2023-01-19T21:14:27.442Z,97004.47
2023-01-19T21:16:58.334Z,97004.19
2023-01-19T21:19:27.247Z,97004.94
2023-01-19T21:21:56.227Z,97000.88
2023-01-19T21:24:24.680Z,97011.50
2023-01-19T21:26:53.314Z,97010.66
2023-01-19T21:29:21.959Z,97008.59
2023-01-19T21:31:52.051Z,97003.72
2023-01-19T21:34:20.846Z,97011.94
2023-01-19T21:36:49.570Z,97013.66
2023-01-19T21:39:18.320Z,97006.25
2023-01-19T21:41:47.131Z,97007.06
2023-01-19T21:44:16.569Z,97006.66
2023-01-19T21:46:45.247Z,97002.72
2023-01-19T21:49:20.299Z,97006.47
2023-01-19T21:51:50.544Z,97008.13
2023-01-19T21:54:20.503Z,97003.91
2023-01-19T21:56:49.127Z,97008.19
2023-01-19T21:59:20.225Z,96998.25
2023-01-19T22:01:49.412Z,96998.25
2023-01-19T22:04:19.668Z,96994.72
2023-01-19T22:06:48.400Z,97001.75
2023-01-19T22:09:17.081Z,97002.56
2023-01-19T22:11:45.704Z,97001.31
2023-01-19T22:14:14.270Z,97000.22
2023-01-19T22:16:42.899Z,96998.34
2023-01-19T22:19:14.370Z,96994.84
2023-01-19T22:21:44.320Z,97002.91
2023-01-19T22:24:13.486Z,96996.91
2023-01-19T22:26:42.167Z,97002.75
2023-01-19T22:29:11.880Z,97004.03
2023-01-19T22:31:41.344Z,96998.44
2023-01-19T22:34:10.879Z,96990.34
2023-01-19T22:36:39.875Z,96996.50
2023-01-19T22:39:12.990Z,96995.75
2023-01-19T22:41:45.012Z,96998.25
2023-01-19T22:44:16.613Z,97005.69
2023-01-19T22:46:45.672Z,97006.38
2023-01-19T22:49:17.073Z,97006.16
2023-01-19T22:51:46.199Z,97011.38
2023-01-19T22:54:16.548Z,96998.31
2023-01-19T22:56:45.774Z,97008.97
2023-01-19T22:59:14.254Z,97016.00
2023-01-19T23:01:44.771Z,97022.41
2023-01-19T23:04:16.708Z,97018.69
2023-01-19T23:06:49.220Z,97024.81
2023-01-19T23:09:20.208Z,97029.16
2023-01-19T23:11:50.663Z,97031.56
2023-01-19T23:14:22.940Z,97033.72
2023-01-19T23:16:51.631Z,97034.84
2023-01-19T23:19:20.464Z,97034.81
2023-01-19T23:21:52.612Z,97034.50
2023-01-19T23:24:22.680Z,97032.16
2023-01-19T23:26:51.631Z,97035.81
2023-01-19T23:29:20.693Z,97042.19
2023-01-19T23:31:50.629Z,97039.03
2023-01-19T23:34:19.261Z,97032.16
2023-01-19T23:36:47.821Z,97031.06
2023-01-19T23:39:19.731Z,97028.06
2023-01-19T23:41:50.967Z,97038.81
2023-01-19T23:44:19.943Z,97035.38
2023-01-19T23:46:48.664Z,97041.69
2023-01-19T23:49:18.126Z,97039.31
2023-01-19T23:51:46.855Z,97046.22
2023-01-19T23:54:15.475Z,97041.13
2023-01-19T23:56:44.172Z,97037.88
2023-01-19T23:59:16.954Z,97023.50
